sensor_id;sensor_type;location;lat;lon;timestamp;pressure;altitude;pressure_sealevel;temperature;humidity
57644;BME280;43474;46.510;6.686;2023-02-28T00:00:33;96548.72;;;-0.85;100.00
57644;BME280;43474;46.510;6.686;2023-02-28T00:03:14;96554.75;;;-0.76;100.00
57644;BME280;43474;46.510;6.686;2023-02-28T00:05:40;96557.03;;;-0.73;100.00
57644;BME280;43474;46.510;6.686;2023-02-28T00:08:07;96549.25;;;-0.89;100.00
57644;BME280;43474;46.510;6.686;2023-02-28T00:10:33;96552.00;;;-0.83;100.00
57644;BME280;43474;46.510;6.686;2023-02-28T00:13:02;96565.16;;;-0.76;100.00
57644;BME280;43474;46.510;6.686;2023-02-28T00:15:28;96541.28;;;-0.88;100.00
57644;BME280;43474;46.510;6.686;2023-02-28T00:17:53;96555.75;;;-0.77;100.00
57644;BME280;43474;46.510;6.686;2023-02-28T00:20:19;96553.78;;;-0.75;100.00
57644;BME280;43474;46.510;6.686;2023-02-28T00:22:49;96564.69;;;-0.80;100.00
57644;BME280;43474;46.510;6.686;2023-02-28T00:25:19;96569.88;;;-0.71;100.00
57644;BME280;43474;46.510;6.686;2023-02-28T00:27:45;96554.28;;;-0.80;100.00
57644;BME280;43474;46.510;6.686;2023-02-28T00:30:14;96563.88;;;-0.72;100.00
57644;BME280;43474;46.510;6.686;2023-02-28T00:32:40;96568.91;;;-0.70;100.00
57644;BME280;43474;46.510;6.686;2023-02-28T00:35:07;96554.94;;;-0.77;100.00
57644;BME280;43474;46.510;6.686;2023-02-28T00:37:33;96555.56;;;-0.75;100.00
57644;BME280;43474;46.510;6.686;2023-02-28T00:39:59;96579.31;;;-0.70;100.00
57644;BME280;43474;46.510;6.686;2023-02-28T00:42:25;96550.72;;;-0.79;100.00
57644;BME280;43474;46.510;6.686;2023-02-28T00:44:50;96564.84;;;-0.73;100.00
57644;BME280;43474;46.510;6.686;2023-02-28T00:47:16;96567.63;;;-0.74;100.00
57644;BME280;43474;46.510;6.686;2023-02-28T00:49:42;96560.78;;;-0.75;100.00
57644;BME280;43474;46.510;6.686;2023-02-28T00:52:07;96539.47;;;-0.87;100.00
57644;BME280;43474;46.510;6.686;2023-02-28T00:54:33;96550.53;;;-0.77;100.00
57644;BME280;43474;46.510;6.686;2023-02-28T00:56:59;96564.53;;;-0.78;100.00
57644;BME280;43474;46.510;6.686;2023-02-28T00:59:25;96553.44;;;-0.80;100.00
57644;BME280;43474;46.510;6.686;2023-02-28T01:01:50;96563.38;;;-0.67;100.00
57644;BME280;43474;46.510;6.686;2023-02-28T01:04:16;96565.00;;;-0.66;100.00
57644;BME280;43474;46.510;6.686;2023-02-28T01:06:42;96570.38;;;-0.68;100.00
57644;BME280;43474;46.510;6.686;2023-02-28T01:09:08;96557.34;;;-0.76;100.00
57644;BME280;43474;46.510;6.686;2023-02-28T01:11:34;96555.59;;;-0.67;100.00
57644;BME280;43474;46.510;6.686;2023-02-28T01:14:01;96564.50;;;-0.70;100.00
57644;BME280;43474;46.510;6.686;2023-02-28T01:16:26;96549.09;;;-0.80;100.00
57644;BME280;43474;46.510;6.686;2023-02-28T01:18:52;96554.44;;;-0.73;100.00
57644;BME280;43474;46.510;6.686;2023-02-28T01:21:19;96562.09;;;-0.63;100.00
57644;BME280;43474;46.510;6.686;2023-02-28T01:23:46;96556.38;;;-0.67;100.00
57644;BME280;43474;46.510;6.686;2023-02-28T01:26:15;96551.50;;;-0.70;100.00
57644;BME280;43474;46.510;6.686;2023-02-28T01:28:42;96546.16;;;-0.68;100.00
57644;BME280;43474;46.510;6.686;2023-02-28T01:31:08;96540.13;;;-0.69;100.00
57644;BME280;43474;46.510;6.686;2023-02-28T01:33:34;96546.97;;;-0.68;100.00
57644;BME280;43474;46.510;6.686;2023-02-28T01:36:01;96552.81;;;-0.66;100.00
57644;BME280;43474;46.510;6.686;2023-02-28T01:38:27;96549.56;;;-0.68;100.00
57644;BME280;43474;46.510;6.686;2023-02-28T01:40:53;96563.41;;;-0.59;100.00
57644;BME280;43474;46.510;6.686;2023-02-28T01:43:24;96548.91;;;-0.70;100.00
57644;BME280;43474;46.510;6.686;2023-02-28T01:45:51;96560.31;;;-0.63;100.00
57644;BME280;43474;46.510;6.686;2023-02-28T01:48:19;96559.00;;;-0.67;100.00
57644;BME280;43474;46.510;6.686;2023-02-28T01:50:46;96553.16;;;-0.69;100.00
57644;BME280;43474;46.510;6.686;2023-02-28T01:53:19;96558.00;;;-0.66;100.00
57644;BME280;43474;46.510;6.686;2023-02-28T01:55:49;96553.16;;;-0.69;100.00
57644;BME280;43474;46.510;6.686;2023-02-28T01:58:16;96557.19;;;-0.66;100.00
57644;BME280;43474;46.510;6.686;2023-02-28T02:00:42;96547.94;;;-0.69;100.00
57644;BME280;43474;46.510;6.686;2023-02-28T02:03:10;96547.28;;;-0.71;100.00
57644;BME280;43474;46.510;6.686;2023-02-28T02:05:38;96553.47;;;-0.72;100.00
57644;BME280;43474;46.510;6.686;2023-02-28T02:08:11;96560.78;;;-0.67;100.00
57644;BME280;43474;46.510;6.686;2023-02-28T02:10:43;96564.69;;;-0.71;100.00
57644;BME280;43474;46.510;6.686;2023-02-28T02:18:46;96538.81;;;-0.81;100.00
57644;BME280;43474;46.510;6.686;2023-02-28T02:27:25;96543.06;;;-0.88;100.00
57644;BME280;43474;46.510;6.686;2023-02-28T02:30:12;96560.63;;;-0.66;100.00
57644;BME280;43474;46.510;6.686;2023-02-28T02:33:06;96558.19;;;-0.67;100.00
57644;BME280;43474;46.510;6.686;2023-02-28T02:35:53;96546.94;;;-0.76;100.00
57644;BME280;43474;46.510;6.686;2023-02-28T02:44:26;96561.59;;;-0.75;100.00
57644;BME280;43474;46.510;6.686;2023-02-28T02:46:57;96553.28;;;-0.70;100.00
57644;BME280;43474;46.510;6.686;2023-02-28T02:49:29;96559.47;;;-0.71;100.00
57644;BME280;43474;46.510;6.686;2023-02-28T02:51:58;96553.16;;;-0.69;100.00
57644;BME280;43474;46.510;6.686;2023-02-28T02:54:28;96553.63;;;-0.65;100.00
57644;BME280;43474;46.510;6.686;2023-02-28T02:57:03;96546.97;;;-0.68;100.00
57644;BME280;43474;46.510;6.686;2023-02-28T02:59:31;96551.50;;;-0.62;100.00
57644;BME280;43474;46.510;6.686;2023-02-28T03:02:02;96548.41;;;-0.65;100.00
57644;BME280;43474;46.510;6.686;2023-02-28T03:04:32;96549.56;;;-0.76;100.00
57644;BME280;43474;46.510;6.686;2023-02-28T03:06:59;96544.69;;;-0.63;100.00
57644;BME280;43474;46.510;6.686;2023-02-28T03:09:25;96551.50;;;-0.70;100.00
57644;BME280;43474;46.510;6.686;2023-02-28T03:11:54;96540.31;;;-0.79;100.00
57644;BME280;43474;46.510;6.686;2023-02-28T03:20:44;96545.81;;;-0.82;100.00
57644;BME280;43474;46.510;6.686;2023-02-28T03:23:19;96552.97;;;-0.75;100.00
57644;BME280;43474;46.510;6.686;2023-02-28T03:25:59;96549.56;;;-0.84;100.00
57644;BME280;43474;46.510;6.686;2023-02-28T03:31:39;96535.91;;;-0.94;100.00
57644;BME280;43474;46.510;6.686;2023-02-28T03:34:21;96550.03;;;-0.81;100.00
57644;BME280;43474;46.510;6.686;2023-02-28T03:36:53;96538.50;;;-0.86;100.00
57644;BME280;43474;46.510;6.686;2023-02-28T03:39:23;96556.38;;;-0.75;100.00
57644;BME280;43474;46.510;6.686;2023-02-28T03:41:57;96554.78;;;-0.84;100.00
57644;BME280;43474;46.510;6.686;2023-02-28T03:44:32;96558.31;;;-0.85;100.00
57644;BME280;43474;46.510;6.686;2023-02-28T03:47:03;96547.59;;;-0.90;100.00
57644;BME280;43474;46.510;6.686;2023-02-28T03:49:35;96547.75;;;-0.92;100.00
57644;BME280;43474;46.510;6.686;2023-02-28T03:52:06;96547.78;;;-0.84;100.00
57644;BME280;43474;46.510;6.686;2023-02-28T03:54:37;96538.50;;;-0.86;100.00
57644;BME280;43474;46.510;6.686;2023-02-28T03:57:18;96548.56;;;-0.75;100.00
57644;BME280;43474;46.510;6.686;2023-02-28T03:59:52;96551.19;;;-0.75;100.00
57644;BME280;43474;46.510;6.686;2023-02-28T04:02:19;96548.91;;;-0.70;100.00
57644;BME280;43474;46.510;6.686;2023-02-28T04:04:45;96540.78;;;-0.83;100.00
57644;BME280;43474;46.510;6.686;2023-02-28T04:07:14;96552.16;;;-0.68;100.00
57644;BME280;43474;46.510;6.686;2023-02-28T04:09:41;96546.94;;;-0.76;100.00
57644;BME280;43474;46.510;6.686;2023-02-28T04:12:07;96557.03;;;-0.73;100.00
57644;BME280;43474;46.510;6.686;2023-02-28T04:14:32;96565.34;;;-0.77;100.00
57644;BME280;43474;46.510;6.686;2023-02-28T04:16:58;96548.59;;;-0.83;100.00
57644;BME280;43474;46.510;6.686;2023-02-28T04:19:24;96557.22;;;-0.74;100.00
57644;BME280;43474;46.510;6.686;2023-02-28T04:21:51;96554.13;;;-0.78;100.00
57644;BME280;43474;46.510;6.686;2023-02-28T04:24:22;96558.34;;;-0.77;100.00
57644;BME280;43474;46.510;6.686;2023-02-28T04:26:50;96562.56;;;-0.76;100.00
57644;BME280;43474;46.510;6.686;2023-02-28T04:29:22;96563.38;;;-0.75;100.00
57644;BME280;43474;46.510;6.686;2023-02-28T04:31:49;96564.34;;;-0.76;100.00
57644;BME280;43474;46.510;6.686;2023-02-28T04:34:15;96556.72;;;-0.86;100.00
57644;BME280;43474;46.510;6.686;2023-02-28T04:36:40;96572.66;;;-0.81;100.00
57644;BME280;43474;46.510;6.686;2023-02-28T04:39:06;96553.94;;;-0.93;100.00
57644;BME280;43474;46.510;6.686;2023-02-28T04:41:31;96550.22;;;-0.98;100.00
57644;BME280;43474;46.510;6.686;2023-02-28T04:43:57;96568.56;;;-0.92;100.00
57644;BME280;43474;46.510;6.686;2023-02-28T04:46:23;96560.59;;;-0.90;100.00
57644;BME280;43474;46.510;6.686;2023-02-28T04:48:49;96575.72;;;-0.86;100.00
57644;BME280;43474;46.510;6.686;2023-02-28T04:51:16;96577.69;;;-0.88;100.00
57644;BME280;43474;46.510;6.686;2023-02-28T04:53:42;96568.41;;;-0.90;100.00
57644;BME280;43474;46.510;6.686;2023-02-28T04:56:11;96565.94;;;-1.00;100.00
57644;BME280;43474;46.510;6.686;2023-02-28T04:58:38;96576.22;;;-0.90;100.00
57644;BME280;43474;46.510;6.686;2023-02-28T05:01:27;96576.22;;;-0.90;100.00
57644;BME280;43474;46.510;6.686;2023-02-28T05:03:55;96588.88;;;-0.95;100.00
57644;BME280;43474;46.510;6.686;2023-02-28T05:06:23;96585.34;;;-0.94;100.00
57644;BME280;43474;46.510;6.686;2023-02-28T05:08:49;96592.16;;;-0.93;100.00
57644;BME280;43474;46.510;6.686;2023-02-28T05:11:23;96592.16;;;-0.93;100.00
57644;BME280;43474;46.510;6.686;2023-02-28T05:13:50;96589.69;;;-0.95;100.00
57644;BME280;43474;46.510;6.686;2023-02-28T05:16:16;96589.56;;;-0.93;100.00
57644;BME280;43474;46.510;6.686;2023-02-28T05:18:42;96581.56;;;-1.00;100.00
57644;BME280;43474;46.510;6.686;2023-02-28T05:21:36;96595.72;;;-0.94;100.00
57644;BME280;43474;46.510;6.686;2023-02-28T05:24:05;96593.59;;;-0.99;100.00
57644;BME280;43474;46.510;6.686;2023-02-28T05:26:34;96596.69;;;-1.03;100.00
57644;BME280;43474;46.510;6.686;2023-02-28T05:29:00;96601.25;;;-0.97;100.00
57644;BME280;43474;46.510;6.686;2023-02-28T05:31:26;96587.22;;;-1.05;100.00
57644;BME280;43474;46.510;6.686;2023-02-28T05:33:52;96584.03;;;-0.98;100.00
57644;BME280;43474;46.510;6.686;2023-02-28T05:36:17;96583.81;;;-1.05;100.00
57644;BME280;43474;46.510;6.686;2023-02-28T05:38:46;96593.13;;;-0.94;100.00
57644;BME280;43474;46.510;6.686;2023-02-28T05:41:11;96590.19;;;-0.99;100.00
57644;BME280;43474;46.510;6.686;2023-02-28T05:43:37;96603.34;;;-1.01;100.00
57644;BME280;43474;46.510;6.686;2023-02-28T05:46:05;96604.50;;;-0.95;100.00
57644;BME280;43474;46.510;6.686;2023-02-28T05:48:31;96603.19;;;-0.91;100.00
57644;BME280;43474;46.510;6.686;2023-02-28T05:50:57;96603.69;;;-0.96;100.00
57644;BME280;43474;46.510;6.686;2023-02-28T05:53:24;96598.16;;;-0.93;100.00
57644;BME280;43474;46.510;6.686;2023-02-28T05:55:49;96591.81;;;-0.98;100.00
57644;BME280;43474;46.510;6.686;2023-02-28T05:58:15;96595.03;;;-1.05;100.00
57644;BME280;43474;46.510;6.686;2023-02-28T06:00:40;96590.50;;;-1.02;100.00
57644;BME280;43474;46.510;6.686;2023-02-28T06:03:06;96575.88;;;-1.03;100.00
57644;BME280;43474;46.510;6.686;2023-02-28T06:05:31;96593.44;;;-0.97;100.00
57644;BME280;43474;46.510;6.686;2023-02-28T06:07:57;96589.84;;;-1.05;100.00
57644;BME280;43474;46.510;6.686;2023-02-28T06:10:23;96587.56;;;-1.08;100.00
57644;BME280;43474;46.510;6.686;2023-02-28T06:12:49;96590.81;;;-1.14;100.00
57644;BME280;43474;46.510;6.686;2023-02-28T06:15:15;96603.81;;;-1.06;100.00
57644;BME280;43474;46.510;6.686;2023-02-28T06:17:43;96603.00;;;-1.06;100.00
57644;BME280;43474;46.510;6.686;2023-02-28T06:20:10;96597.16;;;-1.08;100.00
57644;BME280;43474;46.510;6.686;2023-02-28T06:22:38;96613.59;;;-0.99;100.00
57644;BME280;43474;46.510;6.686;2023-02-28T06:25:05;96606.91;;;-1.02;100.00
57644;BME280;43474;46.510;6.686;2023-02-28T06:27:33;96612.16;;;-0.94;100.00
57644;BME280;43474;46.510;6.686;2023-02-28T06:29:59;96613.94;;;-0.86;100.00
57644;BME280;43474;46.510;6.686;2023-02-28T06:32:25;96622.41;;;-0.84;100.00
57644;BME280;43474;46.510;6.686;2023-02-28T06:34:50;96630.53;;;-0.87;100.00
57644;BME280;43474;46.510;6.686;2023-02-28T06:37:17;96619.47;;;-0.89;100.00
57644;BME280;43474;46.510;6.686;2023-02-28T06:39:42;96628.91;;;-0.80;100.00
57644;BME280;43474;46.510;6.686;2023-02-28T06:42:08;96630.38;;;-0.77;100.00
57644;BME280;43474;46.510;6.686;2023-02-28T06:44:34;96628.75;;;-0.79;100.00
57644;BME280;43474;46.510;6.686;2023-02-28T06:47:04;96640.81;;;-0.69;100.00
57644;BME280;43474;46.510;6.686;2023-02-28T06:49:32;96635.28;;;-0.66;100.00
57644;BME280;43474;46.510;6.686;2023-02-28T06:51:57;96620.31;;;-0.64;100.00
57644;BME280;43474;46.510;6.686;2023-02-28T06:54:23;96633.81;;;-0.61;100.00
57644;BME280;43474;46.510;6.686;2023-02-28T06:56:49;96623.75;;;-0.64;100.00
57644;BME280;43474;46.510;6.686;2023-02-28T06:59:16;96647.16;;;-0.56;100.00
57644;BME280;43474;46.510;6.686;2023-02-28T07:01:42;96645.53;;;-0.48;100.00
57644;BME280;43474;46.510;6.686;2023-02-28T07:04:08;96638.06;;;-0.52;100.00
57644;BME280;43474;46.510;6.686;2023-02-28T07:06:34;96637.09;;;-0.42;100.00
57644;BME280;43474;46.510;6.686;2023-02-28T07:08:59;96636.78;;;-0.39;100.00
57644;BME280;43474;46.510;6.686;2023-02-28T07:11:27;96641.63;;;-0.36;100.00
57644;BME280;43474;46.510;6.686;2023-02-28T07:13:54;96648.31;;;-0.34;100.00
57644;BME280;43474;46.510;6.686;2023-02-28T07:16:21;96643.44;;;-0.37;100.00
57644;BME280;43474;46.510;6.686;2023-02-28T07:18:47;96646.84;;;-0.28;100.00
57644;BME280;43474;46.510;6.686;2023-02-28T07:21:13;96619.81;;;-0.35;100.00
57644;BME280;43474;46.510;6.686;2023-02-28T07:23:39;96631.41;;;-0.30;100.00
57644;BME280;43474;46.510;6.686;2023-02-28T07:26:07;96642.63;;;-0.29;100.00
57644;BME280;43474;46.510;6.686;2023-02-28T07:28:33;96634.31;;;-0.33;100.00
57644;BME280;43474;46.510;6.686;2023-02-28T07:31:06;96635.13;;;-0.24;100.00
57644;BME280;43474;46.510;6.686;2023-02-28T07:33:31;96647.81;;;-0.21;100.00
57644;BME280;43474;46.510;6.686;2023-02-28T07:36:09;96646.66;;;-0.10;100.00
57644;BME280;43474;46.510;6.686;2023-02-28T07:38:38;96656.13;;;-0.09;100.00
57644;BME280;43474;46.510;6.686;2023-02-28T07:41:04;96657.91;;;-0.02;100.00
57644;BME280;43474;46.510;6.686;2023-02-28T07:43:30;96638.34;;;0.03;100.00
57644;BME280;43474;46.510;6.686;2023-02-28T07:46:04;96644.56;;;0.02;100.00
57644;BME280;43474;46.510;6.686;2023-02-28T07:48:31;96652.50;;;0.08;100.00
57644;BME280;43474;46.510;6.686;2023-02-28T07:50:57;96641.94;;;0.02;100.00
57644;BME280;43474;46.510;6.686;2023-02-28T07:53:23;96631.66;;;0.08;100.00
57644;BME280;43474;46.510;6.686;2023-02-28T07:55:49;96647.13;;;0.18;100.00
57644;BME280;43474;46.510;6.686;2023-02-28T07:58:14;96637.34;;;0.20;100.00
57644;BME280;43474;46.510;6.686;2023-02-28T08:00:40;96641.25;;;0.32;100.00
57644;BME280;43474;46.510;6.686;2023-02-28T08:03:05;96639.94;;;0.36;100.00
57644;BME280;43474;46.510;6.686;2023-02-28T08:05:31;96639.44;;;0.41;100.00
57644;BME280;43474;46.510;6.686;2023-02-28T08:07:57;96656.38;;;0.45;100.00
57644;BME280;43474;46.510;6.686;2023-02-28T08:10:23;96654.88;;;0.50;100.00
57644;BME280;43474;46.510;6.686;2023-02-28T08:12:49;96652.91;;;0.52;100.00
57644;BME280;43474;46.510;6.686;2023-02-28T08:15:14;96635.59;;;0.60;100.00
57644;BME280;43474;46.510;6.686;2023-02-28T08:17:40;96636.75;;;0.65;100.00
57644;BME280;43474;46.510;6.686;2023-02-28T08:20:06;96640.13;;;0.74;100.00
57644;BME280;43474;46.510;6.686;2023-02-28T08:22:32;96652.66;;;0.78;100.00
57644;BME280;43474;46.510;6.686;2023-02-28T08:24:58;96645.31;;;0.82;99.85
57644;BME280;43474;46.510;6.686;2023-02-28T08:27:23;96641.72;;;0.83;100.00
57644;BME280;43474;46.510;6.686;2023-02-28T08:29:49;96639.69;;;1.01;99.84
57644;BME280;43474;46.510;6.686;2023-02-28T08:32:14;96653.00;;;1.15;100.00
57644;BME280;43474;46.510;6.686;2023-02-28T08:34:40;96634.34;;;1.18;99.66
57644;BME280;43474;46.510;6.686;2023-02-28T08:37:05;96654.84;;;1.29;99.39
57644;BME280;43474;46.510;6.686;2023-02-28T08:39:36;96653.81;;;1.38;98.05
57644;BME280;43474;46.510;6.686;2023-02-28T08:42:03;96657.00;;;1.48;98.26
57644;BME280;43474;46.510;6.686;2023-02-28T08:44:29;96647.44;;;1.64;96.15
57644;BME280;43474;46.510;6.686;2023-02-28T08:46:54;96658.06;;;1.62;96.77
57644;BME280;43474;46.510;6.686;2023-02-28T08:49:20;96662.06;;;1.73;96.34
57644;BME280;43474;46.510;6.686;2023-02-28T08:51:45;96663.44;;;1.84;94.85
57644;BME280;43474;46.510;6.686;2023-02-28T08:54:11;96654.63;;;1.85;96.51
57644;BME280;43474;46.510;6.686;2023-02-28T08:56:45;96657.38;;;2.06;94.94
57644;BME280;43474;46.510;6.686;2023-02-28T08:59:11;96661.31;;;2.25;92.98
57644;BME280;43474;46.510;6.686;2023-02-28T09:01:37;96665.09;;;2.37;92.60
57644;BME280;43474;46.510;6.686;2023-02-28T09:04:02;96664.47;;;2.35;92.76
57644;BME280;43474;46.510;6.686;2023-02-28T09:06:28;96653.91;;;2.43;91.06
57644;BME280;43474;46.510;6.686;2023-02-28T09:08:57;96663.75;;;2.56;91.07
57644;BME280;43474;46.510;6.686;2023-02-28T09:11:27;96667.28;;;2.63;88.61
57644;BME280;43474;46.510;6.686;2023-02-28T09:13:53;96667.91;;;2.80;91.91
57644;BME280;43474;46.510;6.686;2023-02-28T09:16:20;96677.03;;;2.84;91.32
57644;BME280;43474;46.510;6.686;2023-02-28T09:18:47;96673.41;;;3.00;88.56
57644;BME280;43474;46.510;6.686;2023-02-28T09:21:17;96676.19;;;2.98;89.68
57644;BME280;43474;46.510;6.686;2023-02-28T09:23:44;96674.22;;;3.00;87.58
57644;BME280;43474;46.510;6.686;2023-02-28T09:26:21;96674.75;;;3.10;88.60
57644;BME280;43474;46.510;6.686;2023-02-28T09:28:48;96673.88;;;3.03;86.56
57644;BME280;43474;46.510;6.686;2023-02-28T09:31:16;96660.91;;;3.17;87.01
57644;BME280;43474;46.510;6.686;2023-02-28T09:33:42;96664.59;;;3.58;85.72
57644;BME280;43474;46.510;6.686;2023-02-28T09:36:08;96664.59;;;3.58;84.35
57644;BME280;43474;46.510;6.686;2023-02-28T09:38:34;96667.03;;;3.60;84.84
57644;BME280;43474;46.510;6.686;2023-02-28T09:41:03;96660.38;;;3.79;85.17
57644;BME280;43474;46.510;6.686;2023-02-28T09:43:35;96678.06;;;3.77;84.53
57644;BME280;43474;46.510;6.686;2023-02-28T09:46:12;96672.50;;;3.86;82.99
57644;BME280;43474;46.510;6.686;2023-02-28T09:48:44;96684.22;;;4.12;83.94
57644;BME280;43474;46.510;6.686;2023-02-28T09:54:02;96685.19;;;4.88;78.50
57644;BME280;43474;46.510;6.686;2023-02-28T09:56:33;96677.56;;;5.00;78.63
57644;BME280;43474;46.510;6.686;2023-02-28T09:59:04;96680.50;;;5.25;76.53
57644;BME280;43474;46.510;6.686;2023-02-28T10:02:08;96676.38;;;5.64;76.77
57644;BME280;43474;46.510;6.686;2023-02-28T10:04:58;96669.41;;;6.17;70.99
57644;BME280;43474;46.510;6.686;2023-02-28T10:07:53;96674.09;;;7.58;71.38
57644;BME280;43474;46.510;6.686;2023-02-28T10:10:40;96676.19;;;8.88;61.96
57644;BME280;43474;46.510;6.686;2023-02-28T10:15:56;96676.09;;;8.01;61.69
57644;BME280;43474;46.510;6.686;2023-02-28T10:18:43;96686.09;;;7.92;61.80
57644;BME280;43474;46.510;6.686;2023-02-28T10:21:21;96677.59;;;8.15;60.92
57644;BME280;43474;46.510;6.686;2023-02-28T10:23:53;96680.47;;;7.75;61.69
57644;BME280;43474;46.510;6.686;2023-02-28T10:26:22;96685.38;;;7.34;62.75
57644;BME280;43474;46.510;6.686;2023-02-28T10:28:51;96682.88;;;6.87;63.93
57644;BME280;43474;46.510;6.686;2023-02-28T10:31:19;96690.59;;;6.82;63.47
57644;BME280;43474;46.510;6.686;2023-02-28T10:33:46;96684.72;;;6.87;63.21
57644;BME280;43474;46.510;6.686;2023-02-28T10:36:18;96673.81;;;6.63;63.40
57644;BME280;43474;46.510;6.686;2023-02-28T10:38:44;96692.25;;;6.63;64.48
57644;BME280;43474;46.510;6.686;2023-02-28T10:41:28;96698.50;;;6.69;65.64
57644;BME280;43474;46.510;6.686;2023-02-28T10:44:13;96689.41;;;6.58;64.93
57644;BME280;43474;46.510;6.686;2023-02-28T10:46:41;96683.31;;;6.71;63.24
57644;BME280;43474;46.510;6.686;2023-02-28T10:49:14;96674.78;;;6.76;62.37
57644;BME280;43474;46.510;6.686;2023-02-28T10:51:41;96690.38;;;6.84;64.29
57644;BME280;43474;46.510;6.686;2023-02-28T10:54:39;96687.38;;;7.38;62.72
57644;BME280;43474;46.510;6.686;2023-02-28T10:57:22;96700.88;;;7.62;60.80
57644;BME280;43474;46.510;6.686;2023-02-28T11:00:13;96692.28;;;7.73;63.60
57644;BME280;43474;46.510;6.686;2023-02-28T11:02:39;96702.97;;;8.16;58.95
57644;BME280;43474;46.510;6.686;2023-02-28T11:05:34;96708.53;;;7.70;59.86
57644;BME280;43474;46.510;6.686;2023-02-28T11:08:14;96700.47;;;7.58;59.24
57644;BME280;43474;46.510;6.686;2023-02-28T11:10:48;96689.63;;;7.35;62.19
57644;BME280;43474;46.510;6.686;2023-02-28T11:13:27;96696.16;;;7.19;59.94
57644;BME280;43474;46.510;6.686;2023-02-28T11:15:57;96696.00;;;7.00;66.14
57644;BME280;43474;46.510;6.686;2023-02-28T11:18:44;96701.72;;;6.84;65.61
57644;BME280;43474;46.510;6.686;2023-02-28T11:21:20;96689.63;;;6.57;68.60
57644;BME280;43474;46.510;6.686;2023-02-28T11:23:47;96692.03;;;6.65;66.54
57644;BME280;43474;46.510;6.686;2023-02-28T11:26:14;96698.31;;;6.31;68.85
57644;BME280;43474;46.510;6.686;2023-02-28T11:28:42;96683.94;;;5.93;68.94
57644;BME280;43474;46.510;6.686;2023-02-28T11:33:54;96690.84;;;6.14;69.73
57644;BME280;43474;46.510;6.686;2023-02-28T11:36:29;96682.72;;;6.16;71.23
57644;BME280;43474;46.510;6.686;2023-02-28T11:38:59;96680.09;;;6.09;70.63
57644;BME280;43474;46.510;6.686;2023-02-28T11:41:52;96686.19;;;6.43;70.53
57644;BME280;43474;46.510;6.686;2023-02-28T11:47:41;96672.63;;;7.24;68.30
57644;BME280;43474;46.510;6.686;2023-02-28T11:55:31;96679.56;;;7.95;65.88
57644;BME280;43474;46.510;6.686;2023-02-28T12:11:26;96668.59;;;8.23;63.88
57644;BME280;43474;46.510;6.686;2023-02-28T12:14:19;96651.53;;;8.25;61.79
57644;BME280;43474;46.510;6.686;2023-02-28T12:17:06;96666.22;;;8.15;62.15
57644;BME280;43474;46.510;6.686;2023-02-28T12:19:50;96658.38;;;7.76;63.91
57644;BME280;43474;46.510;6.686;2023-02-28T12:27:39;96659.47;;;7.62;66.14
57644;BME280;43474;46.510;6.686;2023-02-28T12:30:19;96665.03;;;7.47;64.30
57644;BME280;43474;46.510;6.686;2023-02-28T12:32:57;96662.91;;;7.63;63.57
57644;BME280;43474;46.510;6.686;2023-02-28T12:35:54;96657.34;;;7.77;63.41
57644;BME280;43474;46.510;6.686;2023-02-28T12:38:24;96659.47;;;8.25;63.63
57644;BME280;43474;46.510;6.686;2023-02-28T12:41:00;96635.56;;;7.89;61.41
57644;BME280;43474;46.510;6.686;2023-02-28T12:43:35;96643.72;;;7.81;63.84
57644;BME280;43474;46.510;6.686;2023-02-28T12:48:48;96640.94;;;8.00;64.26
57644;BME280;43474;46.510;6.686;2023-02-28T12:51:17;96630.94;;;8.34;64.84
57644;BME280;43474;46.510;6.686;2023-02-28T12:59:45;96642.09;;;9.95;60.18
57644;BME280;43474;46.510;6.686;2023-02-28T13:02:23;96640.25;;;9.35;58.01
57644;BME280;43474;46.510;6.686;2023-02-28T13:08:20;96642.75;;;8.75;62.67
57644;BME280;43474;46.510;6.686;2023-02-28T13:10:50;96639.31;;;8.74;59.53
57644;BME280;43474;46.510;6.686;2023-02-28T13:13:29;96629.19;;;8.90;60.94
57644;BME280;43474;46.510;6.686;2023-02-28T13:16:16;96638.00;;;9.20;58.09
57644;BME280;43474;46.510;6.686;2023-02-28T13:18:45;96620.03;;;9.41;59.86
57644;BME280;43474;46.510;6.686;2023-02-28T13:21:26;96618.97;;;9.30;59.83
57644;BME280;43474;46.510;6.686;2023-02-28T13:40:00;96634.97;;;7.17;60.28
57644;BME280;43474;46.510;6.686;2023-02-28T13:42:36;96642.06;;;7.10;60.36
57644;BME280;43474;46.510;6.686;2023-02-28T13:47:48;96649.31;;;7.28;61.30
57644;BME280;43474;46.510;6.686;2023-02-28T13:53:24;96630.25;;;7.25;62.31
57644;BME280;43474;46.510;6.686;2023-02-28T13:56:27;96637.28;;;7.38;61.44
57644;BME280;43474;46.510;6.686;2023-02-28T14:04:21;96654.94;;;6.80;62.70
57644;BME280;43474;46.510;6.686;2023-02-28T14:06:55;96641.63;;;6.48;63.11
57644;BME280;43474;46.510;6.686;2023-02-28T14:09:28;96647.72;;;6.42;63.74
57644;BME280;43474;46.510;6.686;2023-02-28T14:11:54;96641.25;;;6.11;66.09
57644;BME280;43474;46.510;6.686;2023-02-28T14:17:06;96644.22;;;5.68;65.54
57644;BME280;43474;46.510;6.686;2023-02-28T14:19:36;96644.19;;;5.49;66.29
57644;BME280;43474;46.510;6.686;2023-02-28T14:25:11;96653.91;;;5.61;66.67
57644;BME280;43474;46.510;6.686;2023-02-28T14:36:04;96627.41;;;5.43;68.34
57644;BME280;43474;46.510;6.686;2023-02-28T14:38:35;96622.69;;;5.25;67.17
57644;BME280;43474;46.510;6.686;2023-02-28T14:41:04;96638.34;;;5.53;68.65
57644;BME280;43474;46.510;6.686;2023-02-28T14:43:48;96646.44;;;5.58;68.59
57644;BME280;43474;46.510;6.686;2023-02-28T14:46:14;96639.31;;;5.32;67.79
57644;BME280;43474;46.510;6.686;2023-02-28T14:48:48;96633.84;;;5.34;69.78
57644;BME280;43474;46.510;6.686;2023-02-28T14:51:19;96632.31;;;5.86;69.65
57644;BME280;43474;46.510;6.686;2023-02-28T14:53:50;96642.63;;;5.81;67.46
57644;BME280;43474;46.510;6.686;2023-02-28T14:56:23;96614.03;;;5.38;68.21
57644;BME280;43474;46.510;6.686;2023-02-28T14:58:55;96635.72;;;5.53;69.20
57644;BME280;43474;46.510;6.686;2023-02-28T15:01:22;96646.44;;;5.71;67.32
57644;BME280;43474;46.510;6.686;2023-02-28T15:03:57;96641.88;;;5.26;67.35
57644;BME280;43474;46.510;6.686;2023-02-28T15:06:23;96643.28;;;4.74;69.10
57644;BME280;43474;46.510;6.686;2023-02-28T15:09:07;96645.59;;;4.55;70.79